createdAt,value
2018-06-01T00:01:44.817Z,4.75
2018-06-01T00:04:14.041Z,4.68
2018-06-01T00:06:43.069Z,5.10
2018-06-01T00:09:17.481Z,5.40
2018-06-01T00:11:45.753Z,5.12
2018-06-01T00:14:15.483Z,4.87
2018-06-01T00:16:43.764Z,4.93
2018-06-01T00:19:12.953Z,5.30
2018-06-01T00:21:41.265Z,5.10
2018-06-01T00:24:09.497Z,5.05
2018-06-01T00:26:38.939Z,4.85
2018-06-01T00:29:07.320Z,5.40
2018-06-01T00:31:35.608Z,4.87
2018-06-01T00:34:03.973Z,5.28
2018-06-01T00:36:32.320Z,5.10
2018-06-01T00:39:00.564Z,5.35
2018-06-01T00:41:30.102Z,4.90
2018-06-01T00:43:58.351Z,4.57
2018-06-01T00:46:26.651Z,4.72
2018-06-01T00:48:54.926Z,5.05
2018-06-01T00:51:23.204Z,5.37
2018-06-01T00:53:51.454Z,4.97
2018-06-01T00:56:21.542Z,5.24
2018-06-01T00:58:50.591Z,5.32
2018-06-01T01:01:20.107Z,5.72
2018-06-01T01:03:48.435Z,4.55
2018-06-01T01:06:18.263Z,5.15
2018-06-01T01:08:47.304Z,4.90
2018-06-01T01:11:15.736Z,5.62
2018-06-01T01:13:44.049Z,5.12
2018-06-01T01:16:12.331Z,5.05
2018-06-01T01:18:40.600Z,5.20
2018-06-01T01:21:08.913Z,5.12
2018-06-01T01:23:37.247Z,4.90
2018-06-01T01:26:05.540Z,5.95
2018-06-01T01:28:33.848Z,5.32
2018-06-01T01:31:02.875Z,5.47
2018-06-01T01:33:31.133Z,5.28
2018-06-01T01:36:01.313Z,6.18
2018-06-01T01:38:29.593Z,5.00
2018-06-01T01:40:58.912Z,5.50
2018-06-01T01:43:27.918Z,6.00
2018-06-01T01:45:57.000Z,5.45
2018-06-01T01:48:28.958Z,5.12
2018-06-01T01:50:57.217Z,5.18
2018-06-01T01:53:25.485Z,5.62
2018-06-01T01:55:53.877Z,5.15
2018-06-01T01:58:22.121Z,5.43
2018-06-01T02:00:50.403Z,5.43
2018-06-01T02:03:18.684Z,5.78
2018-06-01T02:05:46.937Z,5.72
2018-06-01T02:08:15.253Z,6.00
2018-06-01T02:10:45.056Z,5.40
2018-06-01T02:13:13.612Z,5.57
2018-06-01T02:15:41.886Z,6.00
2018-06-01T02:18:10.201Z,5.60
2018-06-01T02:20:39.277Z,5.72
2018-06-01T02:23:08.717Z,5.68
2018-06-01T02:25:37.081Z,5.93
2018-06-01T02:28:06.621Z,6.62
2018-06-01T02:30:35.686Z,6.00
2018-06-01T02:33:04.338Z,5.82
2018-06-01T02:35:32.653Z,6.00
2018-06-01T02:38:00.918Z,6.68
2018-06-01T02:40:29.144Z,6.00
2018-06-01T02:42:57.980Z,6.04
2018-06-01T02:45:26.356Z,6.03
2018-06-01T02:47:54.734Z,6.05
2018-06-01T02:50:23.000Z,6.10
2018-06-01T02:52:51.264Z,6.12
2018-06-01T02:55:19.571Z,5.95
2018-06-01T02:57:47.800Z,5.93
2018-06-01T03:00:16.046Z,5.22
2018-06-01T03:02:45.096Z,6.33
2018-06-01T03:05:13.405Z,6.30
2018-06-01T03:07:41.693Z,6.57
2018-06-01T03:10:10.701Z,5.40
2018-06-01T03:12:39.013Z,6.70
2018-06-01T03:15:07.321Z,5.77
2018-06-01T03:17:35.563Z,6.00
2018-06-01T03:20:05.004Z,6.23
2018-06-01T03:22:33.219Z,6.73
2018-06-01T03:25:01.522Z,6.33
2018-06-01T03:27:30.613Z,6.05
2018-06-01T03:29:58.831Z,7.68
2018-06-01T03:32:28.806Z,6.43
2018-06-01T03:34:57.084Z,6.22
2018-06-01T03:37:25.340Z,5.82
2018-06-01T03:39:54.779Z,6.07
2018-06-01T03:42:23.052Z,6.80
2018-06-01T03:44:51.360Z,6.50
2018-06-01T03:47:21.168Z,6.55
2018-06-01T03:49:49.423Z,5.97
2018-06-01T03:52:17.688Z,6.43
2018-06-01T03:54:45.935Z,5.75
2018-06-01T03:57:14.252Z,7.12
2018-06-01T03:59:42.524Z,6.18
2018-06-01T04:02:10.797Z,7.30
2018-06-01T04:04:39.062Z,6.18
2018-06-01T04:07:07.310Z,5.37
2018-06-01T04:09:35.632Z,6.07
2018-06-01T04:12:03.864Z,5.57
2018-06-01T04:14:32.150Z,5.05
2018-06-01T04:17:00.380Z,5.05
2018-06-01T04:19:29.421Z,4.65
2018-06-01T04:21:59.031Z,6.82
2018-06-01T04:24:28.185Z,4.75
2018-06-01T04:26:58.172Z,5.12
2018-06-01T04:29:26.447Z,5.55
2018-06-01T04:31:54.743Z,5.95
2018-06-01T04:34:23.105Z,5.57
2018-06-01T04:36:52.333Z,5.00
2018-06-01T04:39:21.333Z,5.28
2018-06-01T04:41:50.368Z,4.93
2018-06-01T04:44:18.617Z,5.07
2018-06-01T04:46:46.911Z,13.10
2018-06-01T04:49:15.231Z,5.12
2018-06-01T04:51:43.472Z,5.07
2018-06-01T04:54:11.843Z,5.10
2018-06-01T04:56:42.908Z,5.55
2018-06-01T04:59:11.161Z,7.20
2018-06-01T05:01:40.721Z,8.00
2018-06-01T05:04:08.999Z,4.97
2018-06-01T05:06:38.420Z,5.00
2018-06-01T05:09:06.650Z,4.37
2018-06-01T05:11:34.906Z,4.95
2018-06-01T05:14:03.191Z,5.35
2018-06-01T05:16:31.457Z,4.25
2018-06-01T05:18:59.720Z,4.78
2018-06-01T05:21:28.030Z,4.57
2018-06-01T05:23:56.393Z,4.68
2018-06-01T05:26:24.648Z,4.93
2018-06-01T05:28:54.134Z,4.80
2018-06-01T05:31:23.318Z,5.35
2018-06-01T05:33:52.350Z,4.72
2018-06-01T05:36:20.729Z,4.65
2018-06-01T05:38:48.996Z,5.82
2018-06-01T05:41:17.302Z,4.17
2018-06-01T05:43:45.639Z,5.00
2018-06-01T05:46:15.065Z,4.90
2018-06-01T05:48:43.387Z,5.43
2018-06-01T05:51:11.699Z,4.60
2018-06-01T05:53:39.972Z,5.25
2018-06-01T05:56:08.219Z,4.78
2018-06-01T05:58:37.287Z,5.10
2018-06-01T06:01:05.645Z,4.10
2018-06-01T06:03:33.902Z,4.82
2018-06-01T06:08:37.791Z,4.95
2018-06-01T06:11:07.024Z,4.30
2018-06-01T06:13:35.286Z,4.82
2018-06-01T06:16:04.433Z,4.30
2018-06-01T06:18:33.445Z,4.17
2018-06-01T06:21:01.687Z,4.43
2018-06-01T06:23:29.953Z,3.90
2018-06-01T06:25:58.257Z,4.28
2018-06-01T06:28:26.515Z,4.30
2018-06-01T06:30:54.753Z,4.60
2018-06-01T06:33:23.077Z,4.43
2018-06-01T06:35:51.352Z,4.55
2018-06-01T06:38:20.891Z,5.15
2018-06-01T06:40:49.170Z,3.78
2018-06-01T06:43:18.223Z,4.18
2018-06-01T06:45:46.508Z,4.55
2018-06-01T06:48:14.753Z,4.47
2018-06-01T06:50:42.992Z,4.55
2018-06-01T06:53:12.036Z,5.10
2018-06-01T06:55:40.284Z,4.03
2018-06-01T06:58:08.582Z,4.82
2018-06-01T07:00:36.887Z,4.72
2018-06-01T07:03:05.115Z,4.22
2018-06-01T07:05:34.357Z,4.20
2018-06-01T07:08:02.645Z,4.05
2018-06-01T07:10:30.885Z,4.20
2018-06-01T07:12:59.130Z,4.37
2018-06-01T07:15:27.443Z,4.55
2018-06-01T07:17:55.701Z,5.13
2018-06-01T07:20:24.038Z,5.30
2018-06-01T07:22:52.367Z,4.78
2018-06-01T07:25:20.672Z,4.40
2018-06-01T07:27:48.997Z,4.77
2018-06-01T07:30:17.291Z,5.20
2018-06-01T07:32:46.323Z,5.00
2018-06-01T07:35:14.630Z,5.33
2018-06-01T07:37:43.663Z,4.68
2018-06-01T07:40:12.900Z,4.80
2018-06-01T07:42:41.912Z,5.15
2018-06-01T07:45:11.066Z,4.75
2018-06-01T07:47:39.333Z,4.70
2018-06-01T07:50:07.603Z,4.53
2018-06-01T07:52:35.875Z,4.97
2018-06-01T07:55:04.207Z,4.80
2018-06-01T07:57:33.240Z,4.68
2018-06-01T08:00:01.631Z,3.97
2018-06-01T08:02:29.989Z,4.93
2018-06-01T08:04:58.287Z,4.60
2018-06-01T08:07:26.660Z,4.82
2018-06-01T08:09:54.934Z,4.80
2018-06-01T08:12:23.221Z,4.72
2018-06-01T08:14:52.453Z,5.00
2018-06-01T08:17:21.514Z,5.27
2018-06-01T08:19:49.788Z,5.10
2018-06-01T08:22:19.347Z,5.15
2018-06-01T08:24:48.484Z,4.78
2018-06-01T08:27:16.786Z,5.25
2018-06-01T08:29:45.084Z,5.43
2018-06-01T08:32:13.364Z,5.62
2018-06-01T08:34:42.361Z,5.80
2018-06-01T08:37:11.513Z,6.25
2018-06-01T08:39:39.788Z,4.93
2018-06-01T08:42:09.423Z,5.80
2018-06-01T08:44:37.726Z,4.87
2018-06-01T08:47:06.757Z,5.47
2018-06-01T08:49:35.052Z,5.62
2018-06-01T08:52:03.306Z,5.05
2018-06-01T08:54:31.613Z,5.00
2018-06-01T08:56:59.843Z,5.18
2018-06-01T08:59:29.796Z,5.45
2018-06-01T09:01:58.074Z,5.07
2018-06-01T09:04:26.346Z,6.15
2018-06-01T09:06:55.384Z,5.35
2018-06-01T09:09:23.672Z,5.07
2018-06-01T09:11:51.978Z,5.20
2018-06-01T09:14:20.282Z,5.53
2018-06-01T09:16:48.627Z,6.18
2018-06-01T09:19:16.904Z,6.03
2018-06-01T09:21:45.315Z,5.30
2018-06-01T09:24:13.579Z,5.00
2018-06-01T09:26:41.855Z,5.30
2018-06-01T09:29:10.861Z,5.45
2018-06-01T09:31:39.240Z,5.20
2018-06-01T09:34:08.439Z,6.32
2018-06-01T09:36:36.744Z,5.32
2018-06-01T09:39:07.496Z,5.70
2018-06-01T09:41:35.821Z,5.68
2018-06-01T09:44:04.826Z,5.37
2018-06-01T09:46:33.250Z,4.78
2018-06-01T09:49:02.265Z,6.20
2018-06-01T09:51:30.490Z,6.07
2018-06-01T09:53:59.572Z,5.55
2018-06-01T09:56:29.376Z,6.22
2018-06-01T09:58:57.746Z,5.90
2018-06-01T10:01:28.927Z,5.60
2018-06-01T10:03:57.925Z,5.68
2018-06-01T10:06:27.321Z,5.57
2018-06-01T10:08:56.393Z,5.82
2018-06-01T10:11:24.787Z,6.12
2018-06-01T10:13:54.729Z,6.37
2018-06-01T10:16:23.001Z,5.80
2018-06-01T10:18:51.260Z,6.57
2018-06-01T10:21:19.575Z,6.80
2018-06-01T10:23:47.948Z,7.22
2018-06-01T10:26:16.220Z,5.60
2018-06-01T10:28:45.429Z,5.43
2018-06-01T10:31:13.661Z,6.60
2018-06-01T10:33:41.945Z,6.12
2018-06-01T10:36:10.195Z,6.70
2018-06-01T10:38:39.241Z,5.53
2018-06-01T10:41:07.582Z,5.60
2018-06-01T10:43:36.626Z,6.70
2018-06-01T10:46:05.011Z,5.97
2018-06-01T10:48:33.305Z,6.47
2018-06-01T10:51:01.545Z,5.72
2018-06-01T10:53:31.036Z,6.55
2018-06-01T10:55:59.341Z,6.68
2018-06-01T10:58:27.725Z,6.43
2018-06-01T11:00:56.029Z,5.93
2018-06-01T11:03:25.055Z,7.20
2018-06-01T11:05:54.115Z,7.85
2018-06-01T11:08:22.373Z,6.93
2018-06-01T11:10:50.677Z,6.55
2018-06-01T11:13:19.710Z,6.32
2018-06-01T11:15:47.983Z,6.95
2018-06-01T11:18:16.287Z,7.03
2018-06-01T11:20:44.565Z,6.82
2018-06-01T11:23:13.261Z,5.97
2018-06-01T11:25:41.501Z,6.40
2018-06-01T11:28:09.803Z,7.50
2018-06-01T11:30:38.053Z,6.30
2018-06-01T11:33:06.361Z,6.57
2018-06-01T11:35:34.747Z,5.97
2018-06-01T11:38:02.989Z,6.47
2018-06-01T11:40:35.003Z,6.45
2018-06-01T11:43:03.217Z,6.43
2018-06-01T11:45:31.492Z,5.90
2018-06-01T11:47:59.793Z,6.57
2018-06-01T11:50:28.089Z,6.50
2018-06-01T11:52:56.438Z,5.90
2018-06-01T11:55:25.649Z,6.70
2018-06-01T11:57:54.012Z,6.37
2018-06-01T12:00:22.297Z,6.43
2018-06-01T12:02:50.572Z,6.62
2018-06-01T12:05:18.827Z,6.37
2018-06-01T12:07:47.134Z,6.28
2018-06-01T12:10:15.463Z,6.60
2018-06-01T12:12:43.968Z,7.22
2018-06-01T12:15:12.258Z,6.28
2018-06-01T12:17:40.577Z,6.68
2018-06-01T12:20:08.841Z,7.22
2018-06-01T12:22:37.098Z,6.57
2018-06-01T12:25:05.398Z,6.80
2018-06-01T12:27:33.638Z,6.03
2018-06-01T12:30:01.936Z,6.60
2018-06-01T12:32:30.174Z,6.25
2018-06-01T12:34:58.508Z,6.00
2018-06-01T12:37:27.572Z,6.80
2018-06-01T12:39:57.134Z,6.22
2018-06-01T12:42:26.241Z,7.50
2018-06-01T12:44:54.539Z,7.07
2018-06-01T12:47:24.144Z,7.20
2018-06-01T12:49:52.419Z,6.60
2018-06-01T12:52:20.724Z,6.80
2018-06-01T12:54:48.977Z,7.30
2018-06-01T12:57:17.314Z,7.30
2018-06-01T12:59:49.588Z,7.05
2018-06-01T13:02:18.591Z,6.95
2018-06-01T13:04:46.891Z,6.80
2018-06-01T13:07:15.193Z,7.40
2018-06-01T13:09:44.264Z,6.90
2018-06-01T13:12:12.559Z,6.32
2018-06-01T13:14:41.790Z,6.57
2018-06-01T13:17:11.009Z,7.28
2018-06-01T13:19:40.141Z,7.83
2018-06-01T13:22:08.385Z,7.95
2018-06-01T13:24:36.732Z,7.18
2018-06-01T13:27:05.092Z,7.37
2018-06-01T13:29:33.370Z,6.90
2018-06-01T13:32:01.751Z,7.95
2018-06-01T13:34:30.118Z,7.62
2018-06-01T13:36:58.377Z,7.80
2018-06-01T13:39:27.833Z,7.35
2018-06-01T13:41:56.102Z,7.60
2018-06-01T13:44:25.197Z,8.50
2018-06-01T13:46:54.293Z,6.82
2018-06-01T13:49:22.660Z,7.78
2018-06-01T13:51:50.895Z,7.53
2018-06-01T13:54:19.209Z,7.95
2018-06-01T13:56:48.356Z,7.76
2018-06-01T13:59:16.614Z,7.68
2018-06-01T14:01:45.726Z,7.93
2018-06-01T14:04:13.992Z,6.93
2018-06-01T14:06:42.771Z,8.06
2018-06-01T14:09:11.806Z,7.20
2018-06-01T14:11:40.116Z,8.35
2018-06-01T14:14:08.348Z,7.60
2018-06-01T14:16:37.922Z,6.90
2018-06-01T14:19:06.318Z,6.75
2018-06-01T14:21:35.364Z,7.00
2018-06-01T14:24:03.713Z,7.68
2018-06-01T14:26:32.194Z,6.78
2018-06-01T14:29:01.186Z,7.40
2018-06-01T14:31:29.457Z,6.93
2018-06-01T14:33:57.752Z,6.65
2018-06-01T14:36:26.172Z,14.07
2018-06-01T14:38:55.265Z,6.90
2018-06-01T14:41:23.551Z,7.62
2018-06-01T14:43:52.631Z,7.60
2018-06-01T14:46:25.887Z,7.53
2018-06-01T14:48:55.038Z,7.40
2018-06-01T14:51:24.161Z,8.00
2018-06-01T14:53:52.488Z,7.30
2018-06-01T14:56:20.776Z,7.62
2018-06-01T14:58:49.075Z,7.68
2018-06-01T15:01:17.401Z,7.00
2018-06-01T15:03:45.795Z,8.18
2018-06-01T15:06:14.053Z,7.85
2018-06-01T15:08:42.367Z,7.90
2018-06-01T15:11:10.708Z,7.57
2018-06-01T15:13:40.126Z,8.00
2018-06-01T15:16:09.369Z,7.93
2018-06-01T15:18:38.384Z,7.55
2018-06-01T15:21:06.685Z,7.55
2018-06-01T15:23:34.954Z,7.15
2018-06-01T15:26:03.200Z,7.80
2018-06-01T15:28:31.525Z,7.32
2018-06-01T15:30:59.801Z,7.93
2018-06-01T15:33:29.000Z,7.60
2018-06-01T15:35:57.220Z,6.43
2018-06-01T15:38:25.508Z,7.85
2018-06-01T15:40:53.882Z,7.10
2018-06-01T15:43:22.079Z,6.97
2018-06-01T15:45:50.396Z,7.22
2018-06-01T15:48:18.725Z,7.40
2018-06-01T15:50:47.011Z,7.55
2018-06-01T15:53:15.383Z,6.82
2018-06-01T15:55:43.700Z,7.25
2018-06-01T15:58:11.959Z,7.07
2018-06-01T16:00:40.226Z,7.62
2018-06-01T16:03:08.505Z,7.10
2018-06-01T16:05:36.785Z,7.37
2018-06-01T16:08:05.052Z,6.70
2018-06-01T16:10:33.330Z,6.12
2018-06-01T16:13:01.621Z,6.97
2018-06-01T16:15:31.370Z,6.12
2018-06-01T16:17:59.695Z,6.28
2018-06-01T16:20:27.967Z,6.10
2018-06-01T16:22:56.228Z,6.07
2018-06-01T16:25:24.517Z,5.80
2018-06-01T16:27:52.893Z,39.47
2018-06-01T16:30:21.187Z,6.87
2018-06-01T16:32:49.448Z,8.68
2018-06-01T16:35:18.774Z,7.40
2018-06-01T16:37:47.237Z,6.47
2018-06-01T16:40:15.527Z,7.18
2018-06-01T16:42:43.885Z,6.70
2018-06-01T16:45:12.188Z,6.83
2018-06-01T16:47:40.465Z,6.60
2018-06-01T16:50:08.740Z,6.22
2018-06-01T16:52:36.971Z,6.78
2018-06-01T16:55:05.288Z,6.53
2018-06-01T16:57:33.529Z,8.47
2018-06-01T17:00:01.810Z,6.15
2018-06-01T17:02:30.128Z,6.32
2018-06-01T17:04:58.508Z,7.25
2018-06-01T17:07:26.850Z,52.23
2018-06-01T17:09:55.151Z,19.75
2018-06-01T17:12:23.444Z,23.38
2018-06-01T17:14:52.622Z,24.13
2018-06-01T17:17:20.991Z,23.90
2018-06-01T17:19:49.278Z,28.42
2018-06-01T17:22:17.638Z,23.12
2018-06-01T17:24:45.896Z,20.27
2018-06-01T17:27:14.212Z,15.80
2018-06-01T17:29:42.467Z,15.55
2018-06-01T17:32:10.776Z,14.95
2018-06-01T17:34:40.991Z,14.60
2018-06-01T17:37:09.267Z,9.98
2018-06-01T17:39:38.728Z,9.95
2018-06-01T17:42:07.000Z,10.98
2018-06-01T17:44:36.451Z,10.48
2018-06-01T17:47:04.748Z,11.32
2018-06-01T17:49:33.836Z,13.45
2018-06-01T17:52:02.913Z,14.43
2018-06-01T17:54:31.208Z,15.63
2018-06-01T17:57:00.264Z,16.15
2018-06-01T17:59:28.581Z,19.30
2018-06-01T18:01:58.547Z,17.05
2018-06-01T18:04:26.860Z,16.90
2018-06-01T18:06:55.160Z,16.77
2018-06-01T18:09:23.423Z,15.20
2018-06-01T18:11:52.481Z,15.77
2018-06-01T18:14:20.766Z,17.15
2018-06-01T18:16:50.217Z,17.17
2018-06-01T18:19:19.350Z,16.62
2018-06-01T18:21:48.415Z,14.73
2018-06-01T18:24:18.025Z,14.65
2018-06-01T18:26:46.485Z,14.98
2018-06-01T18:29:16.483Z,12.13
2018-06-01T18:31:44.781Z,10.77
2018-06-01T18:34:15.069Z,10.10
2018-06-01T18:36:43.464Z,11.98
2018-06-01T18:39:11.767Z,11.68
2018-06-01T18:41:40.127Z,9.77
2018-06-01T18:44:09.205Z,9.95
2018-06-01T18:46:38.745Z,9.98
2018-06-01T18:49:07.799Z,10.95
2018-06-01T18:51:36.097Z,10.88
2018-06-01T18:54:04.425Z,11.20
2018-06-01T18:56:32.698Z,10.13
2018-06-01T18:59:01.001Z,10.15
2018-06-01T19:01:29.649Z,10.93
2018-06-01T19:03:57.906Z,10.05
2018-06-01T19:06:27.313Z,9.73
2018-06-01T19:08:56.345Z,9.93
2018-06-01T19:11:24.663Z,11.02
2018-06-01T19:13:54.026Z,10.27
2018-06-01T19:16:22.332Z,10.65
2018-06-01T19:18:51.410Z,10.85
2018-06-01T19:21:19.718Z,11.10
2018-06-01T19:23:48.071Z,10.80
2018-06-01T19:26:16.373Z,10.63
2018-06-01T19:28:45.831Z,10.15
2018-06-01T19:31:14.417Z,10.23
2018-06-01T19:33:42.733Z,10.02
2018-06-01T19:36:12.303Z,10.93
2018-06-01T19:38:40.631Z,11.10
2018-06-01T19:41:09.684Z,10.98
2018-06-01T19:43:38.007Z,12.30
2018-06-01T19:46:06.322Z,10.90
2018-06-01T19:48:35.862Z,10.55
2018-06-01T19:51:04.112Z,10.00
2018-06-01T19:53:33.317Z,10.27
2018-06-01T19:56:01.620Z,8.88
2018-06-01T19:58:30.720Z,9.13
2018-06-01T20:00:59.083Z,8.70
2018-06-01T20:03:27.351Z,11.35
2018-06-01T20:05:55.812Z,12.57
2018-06-01T20:08:24.088Z,13.82
2018-06-01T20:10:53.160Z,13.15
2018-06-01T20:13:21.534Z,14.35
2018-06-01T20:15:49.870Z,14.55
2018-06-01T20:18:18.163Z,12.85
2018-06-01T20:20:46.480Z,14.03
2018-06-01T20:23:15.025Z,13.23
2018-06-01T20:25:44.090Z,13.73
2018-06-01T20:28:12.446Z,14.23
2018-06-01T20:30:40.736Z,14.13
2018-06-01T20:33:09.081Z,13.57
2018-06-01T20:35:38.527Z,14.38
2018-06-01T20:38:06.808Z,14.43
2018-06-01T20:40:35.088Z,16.62
2018-06-01T20:43:03.377Z,16.52
2018-06-01T20:45:31.697Z,16.35
2018-06-01T20:48:00.044Z,17.42
2018-06-01T20:50:29.152Z,17.42
2018-06-01T20:52:57.510Z,17.80
2018-06-01T20:55:25.854Z,16.40
2018-06-01T20:57:54.161Z,18.05
2018-06-01T21:00:23.252Z,19.92
2018-06-01T21:02:51.600Z,21.00
2018-06-01T21:05:19.923Z,21.95
2018-06-01T21:07:48.979Z,24.98
2018-06-01T21:10:17.262Z,22.08
2018-06-01T21:12:45.548Z,21.70
2018-06-01T21:15:13.863Z,25.95
2018-06-01T21:17:42.168Z,24.23
2018-06-01T21:20:10.457Z,25.90
2018-06-01T21:22:38.741Z,24.45
2018-06-01T21:25:07.065Z,26.42
2018-06-01T21:27:35.312Z,24.63
2018-06-01T21:30:04.411Z,23.02
2018-06-01T21:32:34.202Z,22.92
2018-06-01T21:35:02.508Z,24.42
2018-06-01T21:37:31.568Z,21.05
2018-06-01T21:39:59.859Z,19.35
2018-06-01T21:42:28.172Z,19.95
2018-06-01T21:44:56.510Z,21.20
2018-06-01T21:47:24.810Z,22.73
2018-06-01T21:49:53.867Z,22.02
2018-06-01T21:52:22.144Z,21.50
2018-06-01T21:54:50.432Z,20.23
2018-06-01T21:57:18.805Z,19.60
2018-06-01T21:59:47.200Z,18.65
2018-06-01T22:02:15.551Z,18.85
2018-06-01T22:04:43.855Z,19.00
2018-06-01T22:07:12.185Z,19.08
2018-06-01T22:09:40.643Z,19.05
2018-06-01T22:12:09.814Z,18.27
2018-06-01T22:14:39.305Z,18.02
2018-06-01T22:17:07.579Z,17.67
2018-06-01T22:19:35.856Z,20.20
2018-06-01T22:22:05.276Z,19.55
2018-06-01T22:24:33.569Z,19.05
2018-06-01T22:27:02.634Z,19.42
2018-06-01T22:29:32.176Z,19.23
2018-06-01T22:32:01.264Z,19.30
2018-06-01T22:34:30.298Z,19.27
2018-06-01T22:36:58.611Z,20.00
2018-06-01T22:39:26.912Z,19.63
2018-06-01T22:41:56.047Z,21.86
2018-06-01T22:44:24.336Z,20.70
2018-06-01T22:46:52.661Z,18.77
2018-06-01T22:49:21.689Z,19.90
2018-06-01T22:51:52.718Z,19.98
2018-06-01T22:54:21.013Z,18.98
2018-06-01T22:56:50.070Z,20.48
2018-06-01T22:59:19.423Z,20.73
2018-06-01T23:01:48.526Z,20.92
2018-06-01T23:04:16.836Z,22.67
2018-06-01T23:06:45.884Z,22.98
2018-06-01T23:09:14.466Z,23.15
2018-06-01T23:11:42.770Z,20.48
2018-06-01T23:14:11.060Z,20.08
2018-06-01T23:16:39.348Z,22.48
2018-06-01T23:19:08.523Z,23.33
2018-06-01T23:21:37.589Z,26.17
2018-06-01T23:24:05.865Z,25.95
2018-06-01T23:26:36.100Z,27.80
2018-06-01T23:29:04.352Z,26.52
2018-06-01T23:31:32.637Z,24.80
2018-06-01T23:34:01.013Z,29.83
2018-06-01T23:36:29.421Z,28.58
2018-06-01T23:38:57.713Z,29.20
2018-06-01T23:41:26.773Z,30.55
2018-06-01T23:43:55.069Z,29.27
2018-06-01T23:46:23.378Z,31.92
2018-06-01T23:48:51.670Z,32.75
2018-06-01T23:51:20.820Z,32.42
2018-06-01T23:53:49.077Z,33.13
2018-06-01T23:56:17.399Z,31.47
2018-06-01T23:58:46.424Z,33.63
